createdAt,value
2022-10-23T00:07:06.717Z,14.43
2022-10-23T00:57:07.731Z,14.43
2022-10-23T01:05:03.138Z,14.50
2022-10-23T01:21:13.059Z,15.53
2022-10-23T01:59:26.787Z,17.93
2022-10-23T02:02:02.388Z,17.60
2022-10-23T02:08:30.658Z,17.60
2022-10-23T02:11:16.726Z,18.47
2022-10-23T02:15:15.045Z,18.07
2022-10-23T02:21:47.791Z,18.33
2022-10-23T02:24:34.609Z,17.83
2022-10-23T02:32:31.511Z,18.60
2022-10-23T02:34:59.915Z,18.93
2022-10-23T02:37:30.624Z,19.07
2022-10-23T02:40:04.356Z,18.73
2022-10-23T02:42:52.782Z,19.30
2022-10-23T02:45:45.136Z,20.10
2022-10-23T02:51:34.137Z,21.10
2022-10-23T02:54:08.508Z,19.43
2022-10-23T02:57:29.626Z,19.37
2022-10-23T03:00:21.233Z,19.03
2022-10-23T03:03:01.970Z,19.60
2022-10-23T03:05:39.670Z,19.70
2022-10-23T03:08:09.832Z,18.60
2022-10-23T03:10:51.114Z,20.17
2022-10-23T03:16:07.236Z,20.57
2022-10-23T03:18:35.123Z,21.17
2022-10-23T03:21:03.374Z,19.87
2022-10-23T03:23:30.903Z,19.93
2022-10-23T03:26:11.082Z,20.63
2022-10-23T03:28:42.187Z,19.60
2022-10-23T03:31:24.900Z,19.30
2022-10-23T03:33:59.699Z,19.90
2022-10-23T03:37:00.809Z,19.00
2022-10-23T03:39:32.183Z,19.03
2022-10-23T03:45:42.877Z,18.60
2022-10-23T03:51:04.605Z,18.77
2022-10-23T03:53:41.589Z,19.07
2022-10-23T03:56:09.157Z,18.10
2022-10-23T03:58:52.911Z,18.13
2022-10-23T04:06:50.497Z,19.30
2022-10-23T04:09:19.394Z,18.53
2022-10-23T04:11:46.894Z,18.47
2022-10-23T04:14:15.066Z,19.30
2022-10-23T04:16:45.057Z,19.33
2022-10-23T04:21:51.254Z,17.73
2022-10-23T04:27:00.270Z,17.17
2022-10-23T04:29:32.030Z,19.10
2022-10-23T04:31:59.597Z,18.27
2022-10-23T04:34:26.712Z,17.27
2022-10-23T04:36:56.409Z,18.47
2022-10-23T04:39:24.249Z,16.83
2022-10-23T04:41:54.710Z,18.03
2022-10-23T04:44:24.375Z,17.53
2022-10-23T04:46:51.498Z,17.70
2022-10-23T04:49:18.918Z,16.70
2022-10-23T04:54:33.127Z,16.30
2022-10-23T04:57:00.590Z,15.93
2022-10-23T04:59:28.260Z,15.83
2022-10-23T05:02:07.448Z,16.60
2022-10-23T05:07:18.833Z,16.23
2022-10-23T05:15:14.846Z,17.03
2022-10-23T05:17:44.620Z,17.23
2022-10-23T05:20:24.477Z,15.80
2022-10-23T05:23:05.465Z,14.90
2022-10-23T05:31:06.608Z,14.27
2022-10-23T05:33:42.076Z,13.87
2022-10-23T05:36:10.034Z,13.90
2022-10-23T05:41:26.544Z,12.87
2022-10-23T05:52:32.310Z,12.47
2022-10-23T05:55:33.669Z,11.87
2022-10-23T06:06:28.476Z,11.97
2022-10-23T06:21:45.473Z,10.97
2022-10-23T06:27:47.044Z,10.83
2022-10-23T07:05:48.338Z,10.00
2022-10-23T07:08:21.762Z,10.00
2022-10-23T07:15:05.983Z,9.03
2022-10-23T07:25:39.341Z,8.50
2022-10-23T07:28:16.167Z,8.43
2022-10-23T07:30:49.765Z,8.53
2022-10-23T07:33:17.133Z,7.93
2022-10-23T07:35:49.867Z,8.93
2022-10-23T07:41:01.984Z,7.37
2022-10-23T07:48:48.432Z,7.60
2022-10-23T07:51:19.931Z,8.17
2022-10-23T07:53:47.807Z,8.80
2022-10-23T07:59:33.441Z,10.03
2022-10-23T08:07:45.726Z,9.97
2022-10-23T08:10:14.893Z,8.60
2022-10-23T08:12:59.338Z,7.87
2022-10-23T08:21:34.285Z,7.17
2022-10-23T08:32:20.104Z,6.67
2022-10-23T08:34:47.095Z,6.33
2022-10-23T08:37:13.917Z,5.97
2022-10-23T08:39:40.974Z,6.30
2022-10-23T08:42:22.903Z,5.60
2022-10-23T08:45:05.595Z,6.07
2022-10-23T08:47:48.302Z,5.37
2022-10-23T08:53:12.900Z,5.97
2022-10-23T08:55:51.486Z,5.57
2022-10-23T08:58:46.173Z,5.17
2022-10-23T09:01:40.976Z,5.75
2022-10-23T09:07:01.249Z,5.43
2022-10-23T09:09:35.650Z,5.10
2022-10-23T09:12:11.377Z,4.80
2022-10-23T09:14:56.740Z,5.47
2022-10-23T09:17:26.926Z,5.03
2022-10-23T09:20:21.144Z,4.70
2022-10-23T09:22:50.409Z,4.37
2022-10-23T09:25:26.798Z,4.90
2022-10-23T09:27:59.056Z,4.60
2022-10-23T09:30:37.524Z,4.50
2022-10-23T09:33:19.053Z,4.33
2022-10-23T09:36:16.610Z,4.33
2022-10-23T09:38:46.698Z,4.13
2022-10-23T09:41:27.355Z,4.30
2022-10-23T09:44:24.009Z,4.23
2022-10-23T09:46:55.792Z,4.43
2022-10-23T09:49:27.854Z,4.07
2022-10-23T09:52:03.955Z,4.80
2022-10-23T09:54:36.993Z,4.70
2022-10-23T09:57:27.200Z,4.40
2022-10-23T10:00:04.411Z,4.20
2022-10-23T10:02:34.506Z,3.93
2022-10-23T10:05:24.683Z,4.20
2022-10-23T10:08:06.365Z,4.10
2022-10-23T10:10:39.572Z,3.70
2022-10-23T10:13:28.368Z,3.60
2022-10-23T10:16:27.134Z,3.33
2022-10-23T10:19:12.839Z,3.50
2022-10-23T10:21:58.073Z,3.50
2022-10-23T10:24:35.668Z,4.23
2022-10-23T10:27:05.570Z,3.40
2022-10-23T10:30:13.271Z,3.80
2022-10-23T10:33:18.913Z,3.90
2022-10-23T10:36:21.069Z,4.07
2022-10-23T10:38:53.066Z,4.30
2022-10-23T10:41:35.721Z,4.50
2022-10-23T10:44:16.003Z,3.50
2022-10-23T10:46:55.608Z,3.63
2022-10-23T10:49:46.777Z,3.10
2022-10-23T10:52:37.018Z,3.10
2022-10-23T10:55:16.422Z,4.03
2022-10-23T10:57:59.182Z,3.33
2022-10-23T11:00:30.280Z,3.70
2022-10-23T11:03:23.342Z,3.40
2022-10-23T11:05:51.879Z,3.77
2022-10-23T11:08:28.180Z,3.50
2022-10-23T11:11:00.309Z,3.60
2022-10-23T11:13:36.472Z,3.70
2022-10-23T11:16:18.635Z,2.93
2022-10-23T11:18:53.861Z,3.43
2022-10-23T11:21:26.760Z,3.30
2022-10-23T11:24:31.734Z,3.93
2022-10-23T11:27:07.779Z,3.27
2022-10-23T11:29:59.587Z,3.07
2022-10-23T11:32:54.149Z,3.67
2022-10-23T11:35:38.988Z,3.90
2022-10-23T11:38:18.144Z,3.50
2022-10-23T11:40:54.633Z,3.73
2022-10-23T11:43:48.338Z,3.10
2022-10-23T11:46:27.113Z,3.00
2022-10-23T11:48:58.156Z,3.37
2022-10-23T11:51:31.236Z,3.87
2022-10-23T11:54:16.286Z,3.13
2022-10-23T11:57:03.326Z,3.30
2022-10-23T11:59:55.368Z,4.00
2022-10-23T12:02:32.957Z,4.07
2022-10-23T12:05:09.581Z,3.20
2022-10-23T12:07:39.001Z,3.40
2022-10-23T12:10:26.798Z,3.47
2022-10-23T12:12:58.652Z,3.30
2022-10-23T12:15:26.701Z,2.80
2022-10-23T12:17:56.637Z,2.93
2022-10-23T12:20:52.762Z,4.13
2022-10-23T12:23:42.159Z,3.30
2022-10-23T12:26:20.849Z,2.73
2022-10-23T12:28:54.309Z,3.28
2022-10-23T12:31:58.784Z,3.20
2022-10-23T12:34:34.683Z,2.90
2022-10-23T12:37:17.946Z,2.73
2022-10-23T12:39:52.017Z,3.03
2022-10-23T12:42:25.073Z,2.60
2022-10-23T12:45:24.068Z,3.10
2022-10-23T12:47:52.594Z,2.70
2022-10-23T12:50:25.868Z,2.67
2022-10-23T12:52:58.736Z,2.67
2022-10-23T12:55:29.757Z,2.73
2022-10-23T12:57:59.381Z,2.63
2022-10-23T13:00:26.520Z,2.77
2022-10-23T13:03:04.117Z,3.03
2022-10-23T13:05:32.719Z,2.47
2022-10-23T13:08:01.336Z,2.63
2022-10-23T13:10:31.141Z,2.30
2022-10-23T13:13:05.345Z,2.60
2022-10-23T13:15:44.035Z,2.90
2022-10-23T13:18:14.272Z,3.00
2022-10-23T13:20:57.663Z,2.70
2022-10-23T13:23:27.728Z,2.97
2022-10-23T13:25:57.284Z,3.53
2022-10-23T13:28:32.967Z,2.73
2022-10-23T13:31:12.409Z,2.30
2022-10-23T13:33:42.564Z,2.73
2022-10-23T13:36:15.185Z,2.50
2022-10-23T13:38:44.584Z,2.43
2022-10-23T13:41:17.231Z,2.40
2022-10-23T13:43:45.366Z,2.37
2022-10-23T13:46:18.391Z,2.40
2022-10-23T13:48:45.995Z,2.27
2022-10-23T13:51:42.551Z,2.43
2022-10-23T13:54:21.740Z,2.37
2022-10-23T13:56:48.938Z,2.00
2022-10-23T13:59:16.808Z,1.83
2022-10-23T14:01:46.245Z,2.20
2022-10-23T14:04:14.040Z,2.30
2022-10-23T14:06:42.220Z,2.10
2022-10-23T14:09:12.893Z,2.00
2022-10-23T14:11:40.695Z,1.93
2022-10-23T14:14:08.404Z,1.87
2022-10-23T14:16:35.308Z,1.93
2022-10-23T14:19:02.281Z,1.93
2022-10-23T14:21:29.329Z,2.07
2022-10-23T14:23:56.288Z,1.90
2022-10-23T14:26:29.949Z,2.20
2022-10-23T14:29:01.056Z,2.30
2022-10-23T14:31:32.363Z,2.37
2022-10-23T14:34:01.102Z,2.40
2022-10-23T14:36:38.376Z,2.30
2022-10-23T14:39:16.747Z,2.40
2022-10-23T14:41:44.096Z,1.97
2022-10-23T14:44:11.020Z,1.97
2022-10-23T14:46:38.472Z,2.50
2022-10-23T14:49:05.691Z,2.60
2022-10-23T14:51:37.940Z,2.20
2022-10-23T14:54:07.470Z,2.50
2022-10-23T14:56:37.938Z,2.30
2022-10-23T14:59:05.934Z,2.30
2022-10-23T15:01:36.104Z,2.10
2022-10-23T15:04:03.817Z,2.27
2022-10-23T15:06:31.073Z,2.50
2022-10-23T15:08:58.141Z,2.57
2022-10-23T15:11:26.638Z,2.93
2022-10-23T15:13:54.866Z,2.83
2022-10-23T15:16:23.245Z,2.97
2022-10-23T15:18:50.155Z,2.70
2022-10-23T15:21:19.444Z,2.47
2022-10-23T15:23:46.905Z,2.00
2022-10-23T15:26:20.928Z,2.37
2022-10-23T15:28:52.599Z,2.37
2022-10-23T15:31:37.723Z,2.53
2022-10-23T15:34:06.493Z,2.20
2022-10-23T15:36:36.441Z,2.33
2022-10-23T15:39:09.673Z,2.20
2022-10-23T15:41:38.993Z,2.20
2022-10-23T15:44:07.256Z,2.70
2022-10-23T15:46:35.142Z,2.30
2022-10-23T15:49:02.152Z,2.53
2022-10-23T15:51:29.512Z,2.30
2022-10-23T15:53:59.630Z,2.30
2022-10-23T15:56:26.883Z,2.60
2022-10-23T15:58:53.839Z,2.40
2022-10-23T16:01:20.822Z,2.50
2022-10-23T16:03:48.056Z,2.87
2022-10-23T16:06:17.396Z,2.60
2022-10-23T16:08:44.696Z,2.53
2022-10-23T16:11:23.909Z,3.17
2022-10-23T16:13:51.300Z,2.43
2022-10-23T16:16:18.893Z,2.50
2022-10-23T16:18:46.563Z,2.53
2022-10-23T16:21:24.461Z,2.20
2022-10-23T16:23:52.626Z,2.70
2022-10-23T16:26:20.245Z,2.40
2022-10-23T16:28:47.605Z,3.10
2022-10-23T16:31:20.536Z,2.70
2022-10-23T16:33:48.982Z,2.97
2022-10-23T16:36:16.862Z,2.57
2022-10-23T16:38:46.357Z,2.70
2022-10-23T16:41:13.331Z,2.33
2022-10-23T16:43:40.467Z,2.37
2022-10-23T16:46:12.651Z,2.30
2022-10-23T16:48:40.501Z,2.80
2022-10-23T16:51:09.768Z,2.40
2022-10-23T16:53:37.068Z,3.10
2022-10-23T16:56:06.797Z,2.77
2022-10-23T16:58:34.190Z,2.60
2022-10-23T17:01:08.460Z,2.57
2022-10-23T17:03:40.915Z,2.80
2022-10-23T17:06:11.381Z,2.87
2022-10-23T17:08:42.811Z,2.40
2022-10-23T17:11:16.078Z,2.40
2022-10-23T17:13:47.694Z,2.60
2022-10-23T17:16:30.030Z,3.13
2022-10-23T17:18:57.818Z,2.50
2022-10-23T17:21:25.270Z,2.93
2022-10-23T17:23:53.683Z,2.87
2022-10-23T17:26:22.241Z,3.20
2022-10-23T17:28:49.850Z,2.93
2022-10-23T17:31:20.453Z,3.37
2022-10-23T17:33:49.543Z,2.80
2022-10-23T17:36:16.907Z,3.20
2022-10-23T17:38:46.464Z,3.43
2022-10-23T17:41:18.405Z,3.80
2022-10-23T17:43:47.158Z,3.40
2022-10-23T17:46:14.878Z,3.60
2022-10-23T17:48:45.562Z,3.70
2022-10-23T17:51:19.876Z,3.40
2022-10-23T17:53:49.634Z,3.50
2022-10-23T17:56:25.495Z,3.70
2022-10-23T18:02:00.203Z,3.90
2022-10-23T18:04:31.567Z,3.80
2022-10-23T18:06:59.218Z,3.87
2022-10-23T18:09:26.877Z,3.70
2022-10-23T18:11:54.481Z,3.90
2022-10-23T18:14:26.052Z,4.13
2022-10-23T18:16:56.490Z,3.93
2022-10-23T18:19:27.493Z,3.27
2022-10-23T18:21:54.469Z,4.17
2022-10-23T18:24:22.038Z,3.80
2022-10-23T18:26:49.351Z,5.00
2022-10-23T18:32:07.651Z,3.87
2022-10-23T18:34:39.313Z,3.43
2022-10-23T18:37:07.141Z,3.70
2022-10-23T18:39:42.296Z,3.70
2022-10-23T18:42:11.114Z,4.00
2022-10-23T18:44:38.736Z,3.57
2022-10-23T18:47:08.711Z,3.77
2022-10-23T18:49:36.303Z,3.70
2022-10-23T18:52:04.938Z,4.00
2022-10-23T18:54:32.017Z,3.87
2022-10-23T18:56:59.008Z,3.70
2022-10-23T18:59:26.158Z,3.70
2022-10-23T19:01:53.448Z,4.30
2022-10-23T19:04:21.250Z,4.17
2022-10-23T19:06:49.921Z,4.13
2022-10-23T19:09:19.717Z,4.17
2022-10-23T19:11:46.691Z,4.17
2022-10-23T19:14:13.811Z,3.93
2022-10-23T19:16:45.095Z,4.50
2022-10-23T19:19:20.975Z,4.33
2022-10-23T19:21:49.584Z,4.27
2022-10-23T19:24:22.198Z,4.53
2022-10-23T19:26:50.032Z,4.30
2022-10-23T19:29:21.832Z,4.03
2022-10-23T19:31:49.755Z,4.23
2022-10-23T19:34:21.390Z,4.00
2022-10-23T19:36:49.257Z,4.30
2022-10-23T19:39:17.389Z,4.33
2022-10-23T19:41:44.760Z,4.33
2022-10-23T19:44:14.264Z,4.20
2022-10-23T19:46:44.946Z,4.40
2022-10-23T19:49:12.356Z,4.10
2022-10-23T19:51:39.718Z,4.10
2022-10-23T19:54:07.267Z,4.20
2022-10-23T19:56:34.347Z,4.10
2022-10-23T19:59:01.200Z,4.10
2022-10-23T20:01:28.378Z,4.27
2022-10-23T20:03:56.010Z,4.10
2022-10-23T20:06:26.445Z,3.87
2022-10-23T20:08:54.090Z,3.93
2022-10-23T20:11:24.880Z,4.23
2022-10-23T20:13:52.821Z,3.97
2022-10-23T20:16:25.941Z,3.77
2022-10-23T20:18:53.156Z,3.70
2022-10-23T20:21:20.803Z,3.93
2022-10-23T20:23:48.587Z,3.37
2022-10-23T20:26:17.988Z,3.73
2022-10-23T20:28:47.198Z,3.63
2022-10-23T20:31:16.149Z,3.60
2022-10-23T20:36:31.606Z,3.73
2022-10-23T20:39:02.501Z,3.43
2022-10-23T20:41:33.358Z,3.77
2022-10-23T20:44:01.599Z,4.20
2022-10-23T20:46:29.567Z,3.93
2022-10-23T20:48:58.014Z,4.30
2022-10-23T20:51:29.240Z,3.90
2022-10-23T20:53:57.192Z,3.80
2022-10-23T20:56:32.941Z,4.83
2022-10-23T20:59:03.164Z,3.60
2022-10-23T21:01:32.338Z,3.10
2022-10-23T21:04:02.194Z,3.37
2022-10-23T21:06:46.278Z,3.60
2022-10-23T21:09:23.075Z,4.37
2022-10-23T21:11:50.613Z,3.60
2022-10-23T21:14:18.810Z,2.93
2022-10-23T21:16:47.227Z,3.50
2022-10-23T21:19:16.500Z,3.57
2022-10-23T21:21:45.148Z,3.40
2022-10-23T21:24:15.403Z,3.27
2022-10-23T21:26:43.764Z,3.20
2022-10-23T21:29:20.019Z,3.60
2022-10-23T21:31:55.847Z,3.43
2022-10-23T21:34:25.411Z,3.55
2022-10-23T21:37:12.463Z,3.00
2022-10-23T21:39:41.263Z,3.07
2022-10-23T21:42:09.094Z,3.33
2022-10-23T21:44:36.560Z,3.37
2022-10-23T21:47:04.329Z,3.20
2022-10-23T21:49:32.218Z,3.43
2022-10-23T21:51:59.442Z,3.03
2022-10-23T21:54:26.960Z,3.50
2022-10-23T21:56:57.686Z,3.07
2022-10-23T21:59:30.289Z,2.83
2022-10-23T22:01:59.223Z,3.10
2022-10-23T22:04:30.128Z,4.03
2022-10-23T22:06:57.912Z,3.03
2022-10-23T22:09:26.701Z,3.03
2022-10-23T22:11:55.146Z,3.10
2022-10-23T22:14:24.176Z,3.00
2022-10-23T22:16:52.281Z,3.40
2022-10-23T22:19:21.225Z,2.90
2022-10-23T22:21:49.699Z,2.90
2022-10-23T22:24:17.921Z,2.57
2022-10-23T22:26:47.864Z,3.00
2022-10-23T22:29:17.649Z,2.90
2022-10-23T22:31:48.792Z,3.63
2022-10-23T22:34:47.729Z,3.27
2022-10-23T22:37:10.690Z,3.43
2022-10-23T22:39:37.784Z,3.40
2022-10-23T22:42:04.993Z,2.93
2022-10-23T22:44:32.037Z,3.33
2022-10-23T22:46:59.253Z,3.27
2022-10-23T22:49:26.461Z,3.33
2022-10-23T22:51:53.747Z,3.40
2022-10-23T22:54:20.585Z,3.60
2022-10-23T22:56:48.106Z,3.90
2022-10-23T22:59:15.579Z,3.10
2022-10-23T23:01:45.786Z,3.43
2022-10-23T23:04:38.248Z,3.33
2022-10-23T23:07:06.220Z,3.10
2022-10-23T23:09:36.789Z,3.10
2022-10-23T23:12:03.997Z,2.93
2022-10-23T23:14:31.046Z,3.33
2022-10-23T23:16:57.975Z,2.80
2022-10-23T23:19:26.775Z,3.37
2022-10-23T23:22:01.842Z,2.90
2022-10-23T23:24:28.853Z,3.50
2022-10-23T23:26:55.803Z,3.63
2022-10-23T23:29:23.052Z,2.97
2022-10-23T23:31:50.021Z,2.87
2022-10-23T23:34:17.021Z,2.90
2022-10-23T23:36:43.941Z,3.43
2022-10-23T23:39:13.516Z,3.00
2022-10-23T23:41:40.453Z,3.40
2022-10-23T23:44:08.518Z,2.57
2022-10-23T23:46:35.828Z,2.93
2022-10-23T23:49:02.729Z,2.80
2022-10-23T23:51:29.585Z,3.00
2022-10-23T23:53:56.653Z,2.93
2022-10-23T23:56:24.344Z,2.97
2022-10-23T23:58:51.293Z,2.80
